Terminal Aerodrome Forecast
Issued by NWS Wichita, KS

Home | Current Version | Previous Version | Graphics & Text | Print | Product List | Glossary On
Versions: 1 2 3 4 5 6 7 8 9 10 11 12 13 14 15 16 17 18 19 20 21
000
FTUS43 KICT 250528
TAFICT
TAF
KICT 250528Z 2506/2606 18008KT P6SM SKC
     FM251200 18012KT P6SM SCT250
     FM251400 18018G25KT P6SM SCT250
     FM251700 18025G35KT P6SM SCT250
     FM252300 17015G22KT P6SM BKN250=

USA.gov is the U.S. government's official web portal to all federal, state and local government web resources and services.